Time;durP1;ratioP1;P1;durP2;ratioP2;P2;SDS_P1;SDS_P2;PMS_P1;PMS_P2;Temp;Humidity;BMP_temperature;BMP_pressure;BME280_temperature;BME280_humidity;BME280_pressure;Samples;Min_cycle;Max_cycle;Signal;HPM_P1;HPM_P2
2024/01/05 00:05:26;;;;;;;268.55;249.55;;;3.80;99.90;;;;;;12378004;28;20086;-87
2024/01/05 00:11:28;;;;;;;270.55;251.98;;;3.80;99.90;;;;;;12378230;28;20076;-86
2024/01/05 00:17:30;;;;;;;273.90;255.40;;;3.90;99.90;;;;;;12373285;28;20058;-86
2024/01/05 00:23:35;;;;;;;274.60;255.90;;;3.90;99.90;;;;;;12351846;28;20080;-84
2024/01/05 00:29:37;;;;;;;275.48;256.73;;;3.90;99.90;;;;;;12382621;28;20046;-86
2024/01/05 00:35:39;;;;;;;279.55;260.80;;;3.90;99.90;;;;;;12375482;28;20422;-84
2024/01/05 00:41:43;;;;;;;276.92;258.33;;;3.90;99.90;;;;;;12349908;28;20161;-86
2024/01/05 00:47:45;;;;;;;275.88;257.13;;;3.90;99.90;;;;;;12372744;28;20050;-87
2024/01/05 00:53:47;;;;;;;274.55;256.02;;;3.90;99.90;;;;;;12431174;28;20054;-87
2024/01/05 00:59:49;;;;;;;273.23;254.90;;;4.00;99.90;;;;;;12355314;28;20415;-86
2024/01/05 01:05:51;;;;;;;263.95;246.32;;;4.00;99.90;;;;;;12375339;28;20050;-86
2024/01/05 01:11:53;;;;;;;265.25;247.77;;;4.00;99.90;;;;;;12394973;28;20076;-87
2024/01/05 01:17:55;;;;;;;262.98;245.38;;;4.20;99.90;;;;;;12359637;28;20055;-86
2024/01/05 01:23:57;;;;;;;267.63;249.50;;;4.20;99.90;;;;;;12396981;28;20103;-86
2024/01/05 01:29:59;;;;;;;273.25;254.90;;;4.20;99.90;;;;;;12375536;28;20054;-87
2024/01/05 01:36:02;;;;;;;277.38;259.08;;;4.20;99.90;;;;;;12384834;28;20056;-86
2024/01/05 01:42:04;;;;;;;277.52;258.88;;;4.30;99.90;;;;;;12407470;28;20487;-86
2024/01/05 01:48:06;;;;;;;275.73;257.70;;;4.20;99.90;;;;;;12370465;28;20053;-85
2024/01/05 01:54:09;;;;;;;276.30;258.10;;;4.30;99.90;;;;;;12384136;28;20055;-86
2024/01/05 02:00:13;;;;;;;283.50;265.08;;;4.30;99.90;;;;;;12389611;28;20065;-85
2024/01/05 02:06:16;;;;;;;279.48;261.50;;;4.40;99.90;;;;;;12425844;28;20066;-86
2024/01/05 02:12:18;;;;;;;282.48;263.85;;;4.40;99.90;;;;;;12375124;28;20407;-86
2024/01/05 02:18:21;;;;;;;283.90;265.42;;;4.40;99.90;;;;;;12381467;28;20141;-84
2024/01/05 02:24:23;;;;;;;292.52;273.83;;;4.40;99.90;;;;;;12383598;28;20047;-85
2024/01/05 02:30:25;;;;;;;279.75;261.63;;;4.40;99.90;;;;;;12393472;28;20244;-84
2024/01/05 02:36:28;;;;;;;281.35;263.08;;;4.50;99.90;;;;;;12367471;28;20058;-84
2024/01/05 02:42:30;;;;;;;283.67;265.40;;;4.50;99.90;;;;;;12379689;28;20103;-84
2024/01/05 02:48:32;;;;;;;288.13;269.48;;;4.50;99.90;;;;;;12386311;28;20074;-84
2024/01/05 02:54:34;;;;;;;302.35;283.13;;;4.60;99.90;;;;;;12392124;28;20047;-84
2024/01/05 03:00:36;;;;;;;301.25;281.70;;;4.60;99.90;;;;;;12362937;28;20058;-84
2024/01/05 03:06:38;;;;;;;306.38;286.77;;;4.70;99.90;;;;;;12443402;28;20133;-84
2024/01/05 03:12:41;;;;;;;317.80;297.48;;;4.70;99.90;;;;;;12410117;28;20476;-85
2024/01/05 03:18:43;;;;;;;318.70;297.75;;;4.80;99.90;;;;;;12422262;28;20040;-85
2024/01/05 03:24:45;;;;;;;310.30;289.60;;;4.70;99.90;;;;;;12420925;28;20046;-84
2024/01/05 03:30:47;;;;;;;317.02;296.63;;;4.80;99.90;;;;;;12433795;28;20031;-83
2024/01/05 03:36:49;;;;;;;323.40;302.48;;;4.70;99.90;;;;;;12426067;28;20069;-84
2024/01/05 03:42:51;;;;;;;321.40;300.83;;;4.80;99.90;;;;;;12456597;28;20057;-85
2024/01/05 03:48:53;;;;;;;315.50;295.30;;;4.80;99.90;;;;;;12421148;28;20093;-83
2024/01/05 03:54:55;;;;;;;308.30;288.85;;;4.80;99.90;;;;;;12436183;28;20091;-84
2024/01/05 04:00:57;;;;;;;318.77;298.88;;;4.90;99.90;;;;;;12409492;28;20031;-83
2024/01/05 04:06:59;;;;;;;323.23;302.42;;;4.80;99.90;;;;;;12422062;28;20050;-85
2024/01/05 04:13:01;;;;;;;345.40;323.98;;;4.90;99.90;;;;;;12423592;28;20051;-85
2024/01/05 04:19:03;;;;;;;350.48;327.92;;;4.90;99.90;;;;;;12407673;28;20051;-85
2024/01/05 04:25:05;;;;;;;360.80;337.75;;;4.90;99.90;;;;;;12408372;28;20225;-85
2024/01/05 04:31:07;;;;;;;358.05;334.70;;;4.90;99.90;;;;;;12431751;28;20080;-86
2024/01/05 04:37:09;;;;;;;352.02;329.38;;;4.80;99.90;;;;;;12388540;28;20065;-85
2024/01/05 04:43:11;;;;;;;337.95;316.75;;;4.70;99.90;;;;;;12420626;28;20061;-85
2024/01/05 04:49:13;;;;;;;339.33;317.45;;;4.70;99.90;;;;;;12378839;28;20058;-86
2024/01/05 04:55:15;;;;;;;336.92;315.52;;;4.60;99.90;;;;;;12390338;28;20124;-81
2024/01/05 05:01:19;;;;;;;332.30;311.65;;;4.50;99.90;;;;;;12393857;28;20541;-81
2024/01/05 05:07:21;;;;;;;334.55;313.88;;;4.40;99.90;;;;;;12448605;28;20103;-82
2024/01/05 05:13:23;;;;;;;337.55;316.02;;;4.50;99.90;;;;;;12399272;28;20050;-80
2024/01/05 05:19:24;;;;;;;328.83;308.33;;;4.50;99.90;;;;;;12408702;28;20046;-81
2024/01/05 05:25:26;;;;;;;333.17;311.63;;;4.50;99.90;;;;;;12391668;28;20043;-80
2024/01/05 05:31:29;;;;;;;332.98;312.05;;;4.60;99.90;;;;;;12399382;28;20051;-81
2024/01/05 05:37:30;;;;;;;335.67;314.45;;;4.50;99.90;;;;;;12386693;28;20062;-80
2024/01/05 05:43:33;;;;;;;334.55;313.48;;;4.60;99.90;;;;;;12384668;28;20055;-85
2024/01/05 05:49:35;;;;;;;333.13;312.05;;;4.60;99.90;;;;;;12401706;28;20096;-81
2024/01/05 05:55:37;;;;;;;342.05;320.38;;;4.70;99.90;;;;;;12384817;28;20057;-81
2024/01/05 06:01:39;;;;;;;348.02;325.63;;;4.70;99.90;;;;;;12390079;28;20062;-84
2024/01/05 06:07:41;;;;;;;346.23;324.40;;;4.70;99.90;;;;;;12412548;28;20485;-81
2024/01/05 06:13:43;;;;;;;337.08;315.65;;;4.70;99.90;;;;;;12389491;28;20058;-80
2024/01/05 06:19:45;;;;;;;326.98;306.02;;;4.70;99.90;;;;;;12387505;28;20050;-81
2024/01/05 06:25:47;;;;;;;307.85;288.42;;;4.60;99.90;;;;;;12397857;28;20098;-80
2024/01/05 06:31:49;;;;;;;295.25;276.42;;;5.30;99.90;;;;;;12416582;28;20119;-80
2024/01/05 06:37:51;;;;;;;266.40;249.40;;;5.50;99.90;;;;;;12391568;28;20058;-80
2024/01/05 06:43:53;;;;;;;256.92;240.52;;;5.60;99.90;;;;;;12401344;28;20068;-80
2024/01/05 06:49:55;;;;;;;238.57;222.82;;;5.70;99.90;;;;;;12387317;28;20603;-80
2024/01/05 06:55:57;;;;;;;242.52;227.07;;;5.80;99.90;;;;;;12389114;28;20111;-80
2024/01/05 07:01:59;;;;;;;247.55;231.05;;;5.80;99.90;;;;;;12375578;28;20054;-81
2024/01/05 07:08:01;;;;;;;226.77;211.63;;;5.90;99.90;;;;;;12383533;28;20061;-80
2024/01/05 07:14:02;;;;;;;242.35;226.27;;;5.90;99.90;;;;;;12403699;28;20057;-80
2024/01/05 07:20:06;;;;;;;239.75;224.32;;;5.90;99.90;;;;;;12391643;28;20062;-81
2024/01/05 07:26:08;;;;;;;222.68;207.25;;;6.00;99.90;;;;;;12391167;28;20042;-80
2024/01/05 07:32:10;;;;;;;234.35;218.38;;;6.20;99.90;;;;;;12395442;28;20077;-79
2024/01/05 07:38:12;;;;;;;239.40;223.48;;;6.30;99.90;;;;;;12383965;28;20050;-81
2024/01/05 07:44:14;;;;;;;233.07;217.50;;;6.30;99.90;;;;;;12383815;28;20520;-83
2024/01/05 07:50:16;;;;;;;230.05;213.52;;;6.40;99.90;;;;;;12404221;28;20054;-82
2024/01/05 07:56:18;;;;;;;236.00;220.55;;;6.40;99.90;;;;;;12379657;28;20478;-81
2024/01/05 08:02:20;;;;;;;244.30;227.98;;;6.50;99.90;;;;;;12399944;28;20058;-81
2024/01/05 08:08:22;;;;;;;247.93;231.65;;;6.50;99.90;;;;;;12388784;28;20050;-81
2024/01/05 08:14:23;;;;;;;246.10;229.93;;;6.50;99.90;;;;;;12402870;28;20054;-81
2024/01/05 08:20:25;;;;;;;220.75;206.07;;;6.50;99.90;;;;;;12398539;28;20054;-80
2024/01/05 08:26:27;;;;;;;223.35;208.30;;;6.60;99.90;;;;;;12418316;28;20058;-80
2024/01/05 08:32:30;;;;;;;228.05;213.10;;;6.60;99.90;;;;;;12379993;28;20047;-81
2024/01/05 08:38:32;;;;;;;224.65;209.60;;;6.60;99.90;;;;;;12363973;28;20525;-81
2024/01/05 08:44:35;;;;;;;227.48;212.68;;;6.60;99.90;;;;;;12352064;28;20051;-81
2024/01/05 08:50:37;;;;;;;231.77;216.32;;;6.70;99.90;;;;;;12392777;28;20418;-82
2024/01/05 08:56:39;;;;;;;222.10;207.35;;;6.70;99.90;;;;;;12411329;28;20047;-81
2024/01/05 09:02:41;;;;;;;226.13;210.70;;;6.80;99.90;;;;;;12363215;28;20061;-81
2024/01/05 09:08:43;;;;;;;226.07;211.07;;;6.80;99.90;;;;;;12373159;28;20049;-79
2024/01/05 09:14:45;;;;;;;225.23;210.68;;;6.90;99.90;;;;;;12368868;28;20059;-80
2024/01/05 09:20:47;;;;;;;215.05;200.55;;;7.20;99.90;;;;;;12369199;28;20062;-81
2024/01/05 09:26:49;;;;;;;192.27;179.00;;;7.30;99.90;;;;;;12379067;28;20053;-80
2024/01/05 09:32:51;;;;;;;207.52;193.32;;;7.40;99.90;;;;;;12372045;28;20493;-80
2024/01/05 09:38:54;;;;;;;206.20;192.15;;;7.40;99.90;;;;;;12364115;28;20188;-81
2024/01/05 09:44:57;;;;;;;203.15;189.18;;;7.40;99.90;;;;;;12358098;28;20050;-80
2024/01/05 09:51:00;;;;;;;200.77;187.23;;;7.40;99.90;;;;;;12387086;28;20418;-80
2024/01/05 09:57:02;;;;;;;204.20;190.50;;;7.40;99.90;;;;;;12383395;28;20149;-80
2024/01/05 10:03:08;;;;;;;196.80;182.77;;;7.50;99.90;;;;;;12365311;28;20100;-82
2024/01/05 10:09:10;;;;;;;202.55;188.50;;;7.70;99.90;;;;;;12362292;28;20728;-81
2024/01/05 10:15:12;;;;;;;200.50;186.57;;;7.80;99.90;;;;;;12429387;28;20387;-81
2024/01/05 10:21:15;;;;;;;185.00;171.38;;;7.90;99.90;;;;;;12375772;28;20050;-80
2024/01/05 10:27:16;;;;;;;177.60;163.90;;;7.90;99.90;;;;;;12374465;28;20046;-80
2024/01/05 10:33:19;;;;;;;171.23;158.48;;;7.90;99.90;;;;;;12375257;28;20057;-80
2024/01/05 10:39:21;;;;;;;162.85;150.50;;;7.90;99.90;;;;;;12370196;28;20054;-81
2024/01/05 10:45:24;;;;;;;171.75;158.70;;;7.90;99.90;;;;;;12380527;28;20503;-81
2024/01/05 10:51:27;;;;;;;167.57;154.88;;;7.90;99.90;;;;;;12377680;28;20047;-81
2024/01/05 10:57:30;;;;;;;168.73;156.15;;;7.90;99.90;;;;;;12373294;28;20127;-82
2024/01/05 11:03:38;;;;;;;166.25;153.68;;;7.90;99.90;;;;;;12379472;28;20054;-81
2024/01/05 11:09:47;;;;;;;163.80;151.15;;;7.90;99.90;;;;;;12358333;28;20042;-81
2024/01/05 11:15:58;;;;;;;162.95;150.52;;;8.00;99.90;;;;;;12391438;28;20058;-81
2024/01/05 11:22:05;;;;;;;164.15;151.85;;;8.00;99.90;;;;;;12381664;28;20058;-81
2024/01/05 11:28:08;;;;;;;157.57;145.70;;;8.10;99.90;;;;;;12372451;28;20478;-82
2024/01/05 11:34:32;;;;;;;148.88;137.35;;;8.20;99.90;;;;;;12385163;28;20054;-81
2024/01/05 11:40:34;;;;;;;152.90;140.82;;;8.30;99.90;;;;;;12369439;28;20046;-81
2024/01/05 11:46:52;;;;;;;148.65;137.60;;;8.20;99.90;;;;;;12359621;28;20089;-81
2024/01/05 11:53:22;;;;;;;145.02;134.45;;;8.20;99.90;;;;;;12409160;28;20075;-81
2024/01/05 11:59:24;;;;;;;144.52;134.32;;;8.20;99.90;;;;;;12367686;28;20190;-87
2024/01/05 12:05:26;;;;;;;149.32;139.00;;;8.30;99.90;;;;;;12367417;28;20042;-87
2024/01/05 12:11:28;;;;;;;148.88;138.68;;;8.30;99.90;;;;;;12434091;28;20147;-86
2024/01/05 12:17:30;;;;;;;146.32;136.60;;;8.30;99.90;;;;;;12395537;28;20034;-85
2024/01/05 12:23:32;;;;;;;146.70;137.05;;;8.20;99.90;;;;;;12432377;28;20057;-84
2024/01/05 12:29:34;;;;;;;144.45;134.90;;;8.20;99.90;;;;;;12411113;28;20478;-86
2024/01/05 12:35:36;;;;;;;137.98;128.90;;;8.20;99.90;;;;;;12370100;28;20474;-86
2024/01/05 12:41:41;;;;;;;137.43;128.57;;;8.00;99.90;;;;;;12382538;28;20067;-85
2024/01/05 12:47:44;;;;;;;140.00;131.00;;;7.90;99.90;;;;;;12391346;28;20050;-86
2024/01/05 12:53:56;;;;;;;138.20;129.20;;;7.90;99.90;;;;;;12390633;28;20046;-87
2024/01/05 13:00:05;;;;;;;142.73;133.43;;;7.80;99.90;;;;;;12385416;28;20112;-86
2024/01/05 13:06:09;;;;;;;140.32;131.38;;;7.70;99.90;;;;;;12376976;28;20039;-86
2024/01/05 13:12:11;;;;;;;136.83;128.13;;;7.70;99.90;;;;;;12383121;28;20062;-87
2024/01/05 13:18:13;;;;;;;138.05;129.52;;;7.70;99.90;;;;;;12367420;28;20421;-87
2024/01/05 13:24:15;;;;;;;140.30;131.93;;;7.70;99.90;;;;;;12419029;28;20125;-87
2024/01/05 13:30:17;;;;;;;146.73;138.02;;;7.70;99.90;;;;;;12379207;28;20050;-86
2024/01/05 13:36:20;;;;;;;141.60;133.05;;;7.70;99.90;;;;;;12368017;28;20050;-87
2024/01/05 13:42:25;;;;;;;138.35;130.25;;;7.70;99.90;;;;;;12377360;28;20089;-86
2024/01/05 13:48:27;;;;;;;143.73;135.32;;;7.70;99.90;;;;;;12371176;28;20375;-86
2024/01/05 13:54:31;;;;;;;141.40;133.18;;;7.70;99.90;;;;;;12412464;28;20101;-86
2024/01/05 14:00:34;;;;;;;138.98;131.20;;;7.70;99.90;;;;;;12425455;28;20109;-86
2024/01/05 14:06:36;;;;;;;136.30;129.07;;;7.70;99.90;;;;;;12408937;28;20051;-84
2024/01/05 14:12:38;;;;;;;142.35;134.75;;;7.70;99.90;;;;;;12444142;28;20043;-87
2024/01/05 14:18:40;;;;;;;145.13;137.52;;;7.60;99.90;;;;;;12389415;28;20054;-84
2024/01/05 14:24:42;;;;;;;145.70;137.90;;;7.50;99.90;;;;;;12402517;28;20058;-83
2024/01/05 14:30:44;;;;;;;139.30;132.20;;;7.50;99.90;;;;;;12414963;28;20045;-83
2024/01/05 14:36:46;;;;;;;146.05;138.50;;;7.50;99.90;;;;;;12409436;22;20064;-34
2024/01/05 14:42:49;;;;;;;130.43;123.93;;;7.50;99.90;;;;;;12365753;28;20053;-34
2024/01/05 14:48:51;;;;;;;133.88;127.20;;;7.50;99.90;;;;;;12372054;28;20125;-35
2024/01/05 14:54:56;;;;;;;129.00;122.50;;;7.40;99.90;;;;;;12377325;28;20057;-34
2024/01/05 15:00:58;;;;;;;128.35;122.03;;;7.50;99.90;;;;;;12367077;28;20088;-34
2024/01/05 15:07:00;;;;;;;124.22;118.13;;;7.40;99.90;;;;;;12370970;28;20137;-35
2024/01/05 15:13:03;;;;;;;122.38;116.30;;;7.40;99.90;;;;;;12391077;28;20038;-34
2024/01/05 15:19:05;;;;;;;118.37;112.47;;;7.40;99.90;;;;;;12364767;28;20090;-35
2024/01/05 15:25:08;;;;;;;115.18;109.60;;;7.40;99.90;;;;;;12364966;28;20047;-35
2024/01/05 15:31:20;;;;;;;113.68;108.10;;;7.30;99.90;;;;;;12360305;28;20399;-34
2024/01/05 15:37:22;;;;;;;105.68;100.68;;;7.30;99.90;;;;;;12348352;28;20507;-34
2024/01/05 15:43:24;;;;;;;104.60;99.63;;;7.40;99.90;;;;;;12356561;28;20050;-34
2024/01/05 15:49:26;;;;;;;95.53;90.93;;;7.40;99.90;;;;;;12414423;28;20054;-35
2024/01/05 15:55:28;;;;;;;99.78;95.07;;;7.50;99.90;;;;;;12379619;22;20193;-82
2024/01/05 16:01:38;;;;;;;106.28;101.13;;;7.40;99.90;;;;;;12395663;28;20044;-80
2024/01/05 16:07:40;;;;;;;94.53;90.03;;;7.30;99.90;;;;;;12378727;28;20058;-82
2024/01/05 16:13:42;;;;;;;97.28;92.60;;;7.10;99.90;;;;;;12401412;28;20046;-82
2024/01/05 16:19:44;;;;;;;91.53;87.13;;;7.00;99.90;;;;;;12432116;28;20054;-82
2024/01/05 16:25:46;;;;;;;88.90;84.60;;;6.90;99.90;;;;;;12339369;28;20491;-82
2024/01/05 16:31:48;;;;;;;89.57;85.10;;;6.90;99.90;;;;;;12397045;28;20066;-81
2024/01/05 16:37:50;;;;;;;86.20;82.10;;;6.80;99.90;;;;;;12411000;28;20402;-85
2024/01/05 16:43:53;;;;;;;70.88;67.45;;;6.70;99.90;;;;;;12376016;28;20054;-86
2024/01/05 16:49:55;;;;;;;75.32;71.63;;;6.50;99.90;;;;;;12406724;28;20079;-86
2024/01/05 16:55:57;;;;;;;75.55;71.80;;;6.40;99.90;;;;;;12405355;28;20050;-86
2024/01/05 17:01:59;;;;;;;74.25;70.60;;;6.40;99.90;;;;;;12431357;28;20051;-86
2024/01/05 17:08:01;;;;;;;82.18;78.07;;;6.30;99.90;;;;;;12468997;28;20136;-86
2024/01/05 17:14:04;;;;;;;81.47;77.38;;;6.30;99.90;;;;;;12420844;28;20043;-83
2024/01/05 17:20:07;;;;;;;86.53;81.93;;;6.30;99.90;;;;;;12396686;28;20051;-86
2024/01/05 17:26:29;;;;;;;89.35;84.82;;;6.40;99.90;;;;;;12383983;22;20396;-35
2024/01/05 17:32:34;;;;;;;95.93;91.10;;;6.40;99.90;;;;;;12404932;22;20070;-35
2024/01/05 17:38:36;;;;;;;91.93;87.18;;;6.30;99.90;;;;;;12374817;28;20134;-35
2024/01/05 17:44:44;;;;;;;88.88;84.25;;;6.30;99.90;;;;;;12392813;28;20054;-35
2024/01/05 17:50:46;;;;;;;87.35;82.68;;;6.30;99.90;;;;;;12364304;28;20047;-35
2024/01/05 17:56:48;;;;;;;92.78;87.63;;;6.30;99.90;;;;;;12409560;28;20054;-34
2024/01/05 18:02:50;;;;;;;95.53;90.10;;;6.20;99.90;;;;;;12413182;28;20058;-35
2024/01/05 18:08:52;;;;;;;104.03;97.63;;;6.20;99.90;;;;;;12395055;28;20051;-35
2024/01/05 18:14:54;;;;;;;99.78;93.47;;;6.20;99.90;;;;;;12443179;28;20414;-35
2024/01/05 18:20:56;;;;;;;99.60;93.22;;;6.10;99.90;;;;;;12475773;28;20048;-35
2024/01/05 18:27:01;;;;;;;97.05;90.68;;;6.00;99.90;;;;;;12387227;28;20046;-35
2024/01/05 18:33:04;;;;;;;95.43;88.93;;;6.00;99.90;;;;;;12369959;28;20111;-35
2024/01/05 18:39:06;;;;;;;93.57;87.18;;;6.00;99.90;;;;;;12366337;28;20059;-35
2024/01/05 18:45:08;;;;;;;89.40;82.88;;;5.90;99.90;;;;;;12358313;28;20049;-35
2024/01/05 18:51:11;;;;;;;86.28;80.05;;;5.90;99.90;;;;;;12386568;28;20394;-35
2024/01/05 18:57:14;;;;;;;85.05;78.85;;;5.80;99.90;;;;;;12400489;28;20066;-44
2024/01/05 19:03:16;;;;;;;79.87;74.07;;;5.80;99.90;;;;;;12348064;28;20058;-35
2024/01/05 19:09:18;;;;;;;81.50;75.50;;;5.80;99.90;;;;;;12351104;28;20054;-34
2024/01/05 19:15:20;;;;;;;80.95;75.45;;;5.80;99.90;;;;;;12355552;28;20601;-35
2024/01/05 19:21:23;;;;;;;80.15;74.45;;;5.70;99.90;;;;;;12352099;28;20176;-35
2024/01/05 19:27:25;;;;;;;85.53;79.75;;;5.70;99.90;;;;;;12346952;28;20049;-33
2024/01/05 19:33:28;;;;;;;86.45;80.70;;;5.70;99.90;;;;;;12365990;28;20059;-35
2024/01/05 19:39:31;;;;;;;84.03;78.32;;;5.70;99.90;;;;;;12355428;28;20111;-35
2024/01/05 19:45:33;;;;;;;85.13;79.40;;;5.70;99.90;;;;;;12360845;28;20054;-35
2024/01/05 19:51:51;;;;;;;83.53;78.03;;;5.70;99.90;;;;;;12367296;28;20046;-35
2024/01/05 19:57:53;;;;;;;87.60;81.80;;;5.70;99.90;;;;;;12388926;28;20058;-35
2024/01/05 20:03:55;;;;;;;92.53;86.50;;;5.60;99.90;;;;;;12355317;28;20058;-35
2024/01/05 20:09:58;;;;;;;90.68;84.72;;;5.60;99.90;;;;;;12369359;28;20533;-35
2024/01/05 20:16:00;;;;;;;94.00;87.95;;;5.50;99.90;;;;;;12363287;28;20525;-35
2024/01/05 20:22:05;;;;;;;93.72;87.82;;;5.60;99.90;;;;;;12344466;28;20051;-35
2024/01/05 20:28:07;;;;;;;86.75;81.20;;;5.60;99.90;;;;;;12360378;28;20051;-35
2024/01/05 20:34:11;;;;;;;92.20;86.10;;;5.60;99.90;;;;;;12358113;28;20069;-34
2024/01/05 20:40:13;;;;;;;93.97;87.87;;;5.70;99.90;;;;;;12376838;28;20094;-35
2024/01/05 20:46:16;;;;;;;93.75;87.57;;;5.70;99.90;;;;;;12407231;28;20054;-35
2024/01/05 20:52:18;;;;;;;96.97;90.85;;;5.70;99.90;;;;;;12373141;28;20077;-35
2024/01/05 20:58:20;;;;;;;99.65;93.28;;;5.70;99.90;;;;;;12430262;28;20054;-35
2024/01/05 21:04:22;;;;;;;93.70;87.40;;;5.70;99.90;;;;;;12387773;28;20053;-35
2024/01/05 21:10:24;;;;;;;94.00;87.80;;;5.70;99.90;;;;;;12377664;28;20654;-35
2024/01/05 21:16:27;;;;;;;98.22;91.95;;;5.70;99.90;;;;;;12389104;28;20042;-35
2024/01/05 21:22:28;;;;;;;101.18;94.78;;;5.70;99.90;;;;;;12380095;28;20129;-35
2024/01/05 21:28:30;;;;;;;104.75;97.65;;;5.70;99.90;;;;;;12357379;28;20043;-35
2024/01/05 21:34:32;;;;;;;106.70;99.90;;;5.70;99.90;;;;;;12352713;28;20547;-35
2024/01/05 21:40:34;;;;;;;109.80;102.40;;;5.80;99.90;;;;;;12368570;28;20363;-36
2024/01/05 21:46:39;;;;;;;110.18;103.28;;;5.80;99.90;;;;;;12361091;28;20486;-35
2024/01/05 21:52:41;;;;;;;112.28;105.07;;;5.70;99.90;;;;;;12417450;28;20076;-35
2024/01/05 21:58:42;;;;;;;113.57;106.45;;;5.80;99.90;;;;;;12394320;28;20141;-35
2024/01/05 22:04:44;;;;;;;112.90;105.72;;;5.70;99.90;;;;;;12381597;28;20054;-35
2024/01/05 22:10:48;;;;;;;114.93;107.38;;;5.70;99.90;;;;;;12367956;28;20406;-35
2024/01/05 22:16:52;;;;;;;118.00;110.57;;;5.80;99.90;;;;;;12392506;28;20192;-35
2024/01/05 22:22:54;;;;;;;;;;;5.70;99.90;;;;;;12346471;28;20092;-35
2024/01/05 22:28:56;;;;;;;115.65;108.15;;;5.80;99.90;;;;;;12360308;28;19933;-35
2024/01/05 22:34:58;;;;;;;121.28;113.65;;;5.70;99.90;;;;;;12375027;28;20054;-34
2024/01/05 22:41:06;;;;;;;120.35;112.50;;;5.70;99.90;;;;;;12391123;28;20043;-35
2024/01/05 22:47:08;;;;;;;127.30;119.30;;;5.70;99.90;;;;;;12393742;28;20066;-35
2024/01/05 22:53:10;;;;;;;123.32;115.78;;;5.70;99.90;;;;;;12367407;28;20050;-34
2024/01/05 22:59:12;;;;;;;131.98;123.68;;;5.60;99.90;;;;;;12352167;28;20054;-35
2024/01/05 23:05:14;;;;;;;133.65;125.43;;;5.60;99.90;;;;;;12382342;28;20054;-36
2024/01/05 23:11:16;;;;;;;134.20;125.85;;;5.60;99.90;;;;;;12435668;28;20104;-35
2024/01/05 23:17:18;;;;;;;139.32;130.52;;;5.60;99.90;;;;;;12387339;28;20054;-35
2024/01/05 23:23:20;;;;;;;140.93;132.05;;;5.60;99.90;;;;;;12359191;28;20058;-34
2024/01/05 23:29:23;;;;;;;144.40;135.30;;;5.60;99.90;;;;;;12348384;28;20853;-34
2024/01/05 23:35:25;;;;;;;144.38;135.18;;;5.60;99.90;;;;;;12368022;28;20153;-35
2024/01/05 23:41:27;;;;;;;146.13;136.93;;;5.60;99.90;;;;;;12345508;28;20057;-35
2024/01/05 23:47:29;;;;;;;151.15;141.50;;;5.60;99.90;;;;;;12373461;28;20050;-35
2024/01/05 23:53:31;;;;;;;154.20;144.52;;;5.60;99.90;;;;;;12380809;28;20043;-35
2024/01/05 23:59:34;;;;;;;158.15;147.68;;;5.70;99.90;;;;;;12358881;28;20467;-35
